28°C Temp
18°C Dewpoint
55% Humidity
Temperature
10 KM/H
6 MPH
5 KTS
180°
Due South

Wind Speed
Clear
Conditions
Pressure 1013.88 (hPa) - 29.94 (in)
Visibility 6.0 (mi) - 9.7 (km)

Current Conditions
LSZA
Location 41(km)
Metar :LSZA 240950Z 18005KT 120V210 CAVOK 28/18 Q1014
Wed 24th July 11:50 am

Airport
  Metar Aviation API Data Provided by https://www.checkwx.com/ PHP scripts by weather34.com ©2024